createdAt,value
2023-05-02T00:00:21.286Z,101197.53
2023-05-02T00:01:23.637Z,101197.18
2023-05-02T00:02:25.995Z,101201.91
2023-05-02T00:03:29.113Z,101199.16
2023-05-02T00:04:32.125Z,101198.77
2023-05-02T00:05:34.873Z,101205.47
2023-05-02T00:06:37.370Z,101204.69
2023-05-02T00:07:39.692Z,101198.38
2023-05-02T00:08:41.736Z,101207.84
2023-05-02T00:09:44.028Z,101205.48
2023-05-02T00:10:46.227Z,101211.41
2023-05-02T00:11:48.324Z,101211.80
2023-05-02T00:12:50.339Z,101207.48
2023-05-02T00:13:52.335Z,101214.96
2023-05-02T00:14:54.456Z,101213.39
2023-05-02T00:15:56.580Z,101218.12
2023-05-02T00:16:58.792Z,101214.58
2023-05-02T00:18:01.066Z,101211.03
2023-05-02T00:19:03.393Z,101208.68
2023-05-02T00:20:09.962Z,101213.01
2023-05-02T00:21:12.240Z,101207.90
2023-05-02T00:22:14.450Z,101215.38
2023-05-02T00:23:16.586Z,101214.24
2023-05-02T00:24:18.803Z,101213.86
2023-05-02T00:25:21.453Z,101211.50
2023-05-02T00:26:23.874Z,101211.91
2023-05-02T00:27:26.137Z,101215.06
2023-05-02T00:28:28.349Z,101214.27
2023-05-02T00:29:30.624Z,101214.27
2023-05-02T00:30:34.714Z,101216.64
2023-05-02T00:31:36.942Z,101212.32
2023-05-02T00:32:39.096Z,101211.53
2023-05-02T00:33:41.120Z,101216.27
2023-05-02T00:34:43.312Z,101215.47
2023-05-02T00:35:45.522Z,101216.66
2023-05-02T00:36:48.043Z,101227.69
2023-05-02T00:37:50.092Z,101227.30
2023-05-02T00:38:54.968Z,101222.19
2023-05-02T00:39:57.214Z,101223.37
2023-05-02T00:41:00.291Z,101224.94
2023-05-02T00:42:02.429Z,101229.66
2023-05-02T00:43:04.682Z,101230.09
2023-05-02T00:44:06.690Z,101225.77
2023-05-02T00:45:12.140Z,101233.25
2023-05-02T00:46:14.767Z,101228.92
2023-05-02T00:47:17.069Z,101228.54
2023-05-02T00:48:19.252Z,101236.02
2023-05-02T00:49:21.450Z,101233.66
2023-05-02T00:50:26.667Z,101235.63
2023-05-02T00:51:29.271Z,101239.17
2023-05-02T00:52:31.510Z,101236.42
2023-05-02T00:53:35.516Z,101238.78
2023-05-02T00:54:38.062Z,101244.30
2023-05-02T00:55:40.280Z,101241.54
2023-05-02T00:56:42.485Z,101238.78
2023-05-02T00:57:44.761Z,101243.13
2023-05-02T00:58:47.326Z,101254.92
2023-05-02T00:59:50.772Z,101247.06
2023-05-02T01:01:25.003Z,101249.03
2023-05-02T01:02:39.797Z,101254.15
2023-05-02T01:04:01.961Z,101249.03
2023-05-02T01:05:11.042Z,101253.77
2023-05-02T01:06:32.399Z,101254.16
2023-05-02T01:07:47.745Z,101254.59
2023-05-02T01:08:52.959Z,101254.20
2023-05-02T01:09:59.289Z,101263.25
2023-05-02T01:11:11.893Z,101256.56
2023-05-02T01:12:30.195Z,101260.50
2023-05-02T01:17:55.409Z,101250.28
2023-05-02T01:18:57.718Z,101252.66
2023-05-02T01:21:30.643Z,101252.25
2023-05-02T01:22:32.657Z,101250.73
2023-05-02T01:23:47.439Z,101262.14
2023-05-02T01:25:16.522Z,101249.55
2023-05-02T01:26:38.165Z,101258.20
2023-05-02T01:28:02.127Z,101262.14
2023-05-02T01:29:05.579Z,101263.33
2023-05-02T01:30:08.646Z,101267.26
2023-05-02T01:31:10.711Z,101258.21
2023-05-02T01:32:13.097Z,101262.15
2023-05-02T01:33:15.979Z,101263.33
2023-05-02T01:34:19.540Z,101259.79
2023-05-02T01:35:21.655Z,101266.48
2023-05-02T01:36:25.611Z,101267.66
2023-05-02T01:37:29.734Z,101257.83
2023-05-02T01:38:31.906Z,101255.08
2023-05-02T01:39:34.008Z,101259.80
2023-05-02T01:40:36.140Z,101258.61
2023-05-02T01:41:38.426Z,101266.88
2023-05-02T01:42:40.731Z,101266.09
2023-05-02T01:43:42.946Z,101270.80
2023-05-02T01:44:46.288Z,101267.27
2023-05-02T01:45:49.161Z,101264.52
2023-05-02T01:46:52.645Z,101269.23
2023-05-02T01:47:55.517Z,101274.73
2023-05-02T01:48:58.643Z,101273.95
2023-05-02T01:50:01.496Z,101269.62
2023-05-02T01:51:05.151Z,101278.67
2023-05-02T01:52:07.999Z,101265.33
2023-05-02T01:53:10.704Z,101270.05
2023-05-02T01:54:13.373Z,101264.94
2023-05-02T01:55:17.177Z,101273.20
2023-05-02T01:56:20.625Z,101269.66
2023-05-02T01:57:22.765Z,101272.41
2023-05-02T01:58:26.716Z,101271.63
2023-05-02T01:59:28.917Z,101270.84
2023-05-02T02:00:33.400Z,101267.30
2023-05-02T02:01:38.377Z,101264.55
2023-05-02T02:02:41.228Z,101271.23
2023-05-02T02:03:43.216Z,101269.66
2023-05-02T02:04:45.729Z,101271.63
2023-05-02T02:05:48.327Z,101276.34
2023-05-02T02:06:57.632Z,101267.67
2023-05-02T02:08:00.522Z,101275.92
2023-05-02T02:09:02.791Z,101271.60
2023-05-02T02:10:08.528Z,101275.14
2023-05-02T02:11:11.900Z,101269.63
2023-05-02T02:12:28.658Z,101275.92
2023-05-02T02:13:33.484Z,101272.39
2023-05-02T02:14:41.262Z,101277.50
2023-05-02T02:15:43.494Z,101271.60
2023-05-02T02:16:46.188Z,101277.11
2023-05-02T02:19:14.188Z,101273.98
2023-05-02T02:20:16.602Z,101278.67
2023-05-02T02:21:18.712Z,101274.75
2023-05-02T02:22:21.323Z,101272.39
2023-05-02T02:23:25.322Z,101278.67
2023-05-02T02:24:27.506Z,101282.22
2023-05-02T02:25:29.880Z,101280.64
2023-05-02T02:26:31.885Z,101282.22
2023-05-02T02:27:33.952Z,101281.43
2023-05-02T02:28:36.205Z,101283.39
2023-05-02T02:29:38.304Z,101279.07
2023-05-02T02:30:41.560Z,101283.79
2023-05-02T02:31:43.700Z,101278.28
2023-05-02T02:32:45.913Z,101286.54
2023-05-02T02:33:48.247Z,101280.25
2023-05-02T02:34:50.983Z,101275.53
2023-05-02T02:36:10.182Z,101271.23
2023-05-02T02:37:15.312Z,101272.00
2023-05-02T02:38:26.996Z,101269.66
2023-05-02T02:40:55.694Z,101268.45
2023-05-02T02:43:42.929Z,101274.36
2023-05-02T02:44:58.133Z,101271.63
2023-05-02T02:46:15.904Z,101274.38
2023-05-02T02:47:31.142Z,101272.42
2023-05-02T02:50:21.920Z,101274.75
2023-05-02T02:51:30.687Z,101279.10
2023-05-02T02:52:39.653Z,101281.45
2023-05-02T02:54:18.969Z,101278.70
2023-05-02T02:55:35.655Z,101284.21
2023-05-02T02:56:39.716Z,101287.75
2023-05-02T02:57:47.823Z,101286.54
2023-05-02T02:58:59.409Z,101292.05
2023-05-02T03:00:11.238Z,101286.15
2023-05-02T03:01:18.315Z,101286.15
2023-05-02T03:02:22.696Z,101292.44
2023-05-02T03:03:25.303Z,101286.94
2023-05-02T03:04:30.203Z,101284.97
2023-05-02T03:05:32.720Z,101285.36
2023-05-02T03:06:35.138Z,101285.36
2023-05-02T03:07:37.786Z,101290.47
2023-05-02T03:08:40.632Z,101285.75
2023-05-02T03:10:53.209Z,101293.22
2023-05-02T03:11:56.122Z,101292.86
2023-05-02T03:12:59.533Z,101299.15
2023-05-02T03:14:01.804Z,101298.76
2023-05-02T03:15:26.352Z,101301.91
2023-05-02T03:16:38.434Z,101301.51
2023-05-02T03:17:42.844Z,101296.79
2023-05-02T03:18:45.664Z,101304.63
2023-05-02T03:19:48.284Z,101305.80
2023-05-02T03:20:50.632Z,101306.20
2023-05-02T03:21:52.823Z,101310.52
2023-05-02T03:22:55.362Z,101303.83
2023-05-02T03:24:01.631Z,101306.98
2023-05-02T03:25:08.406Z,101315.63
2023-05-02T03:26:12.043Z,101319.56
2023-05-02T03:27:15.999Z,101316.41
2023-05-02T03:28:18.311Z,101309.33
2023-05-02T03:29:21.097Z,101312.45
2023-05-02T03:30:24.486Z,101314.80
2023-05-02T03:31:28.006Z,101321.48
2023-05-02T03:32:30.748Z,101318.73
2023-05-02T03:33:33.749Z,101324.63
2023-05-02T03:34:35.983Z,101322.27
2023-05-02T03:35:38.487Z,101319.51
2023-05-02T03:36:40.862Z,101317.14
2023-05-02T03:37:42.963Z,101328.13
2023-05-02T03:38:45.244Z,101331.27
2023-05-02T03:39:47.920Z,101326.14
2023-05-02T03:40:50.169Z,101333.62
2023-05-02T03:41:52.288Z,101327.31
2023-05-02T03:42:55.616Z,101331.24
2023-05-02T03:43:59.810Z,101335.93
2023-05-02T03:45:02.918Z,101336.70
2023-05-02T03:46:07.162Z,101339.45
2023-05-02T03:47:10.017Z,101338.27
2023-05-02T03:48:12.276Z,101339.44
2023-05-02T03:49:14.951Z,101342.16
2023-05-02T03:50:19.894Z,101340.17
2023-05-02T03:51:22.628Z,101338.19
2023-05-02T03:52:25.588Z,101340.15
2023-05-02T03:53:29.554Z,101348.01
2023-05-02T03:54:32.492Z,101341.66
2023-05-02T03:56:48.026Z,101341.95
2023-05-02T03:57:51.877Z,101338.06
2023-05-02T03:58:53.992Z,101336.86
2023-05-02T03:59:56.757Z,101343.91
2023-05-02T04:01:01.548Z,101346.25
2023-05-02T04:02:03.913Z,101341.50
2023-05-02T04:03:08.462Z,101342.27
2023-05-02T04:04:12.664Z,101339.84
2023-05-02T04:05:16.996Z,101340.20
2023-05-02T04:06:19.871Z,101338.21
2023-05-02T04:07:24.011Z,101339.76
2023-05-02T04:08:28.096Z,101343.63
2023-05-02T04:09:30.175Z,101351.48
2023-05-02T04:10:34.246Z,101345.14
2023-05-02T04:11:38.485Z,101339.94
2023-05-02T04:12:42.545Z,101346.98
2023-05-02T04:13:45.397Z,101348.91
2023-05-02T04:14:47.518Z,101348.04
2023-05-02T04:15:50.215Z,101345.22
2023-05-02T04:16:54.527Z,101348.73
2023-05-02T04:17:59.140Z,101345.89
2023-05-02T04:19:04.914Z,101351.35
2023-05-02T04:20:11.553Z,101344.20
2023-05-02T04:21:15.706Z,101343.72
2023-05-02T04:22:18.448Z,101353.52
2023-05-02T04:23:22.633Z,101352.22
2023-05-02T04:24:26.685Z,101352.94
2023-05-02T04:25:28.795Z,101350.50
2023-05-02T04:26:32.850Z,101357.91
2023-05-02T04:27:36.805Z,101354.66
2023-05-02T04:28:39.031Z,101360.08
2023-05-02T04:29:42.328Z,101363.17
2023-05-02T04:30:45.576Z,101363.09
2023-05-02T04:31:48.676Z,101361.78
2023-05-02T04:32:51.551Z,101352.98
2023-05-02T04:33:54.077Z,101360.33
2023-05-02T04:34:58.202Z,101359.83
2023-05-02T04:36:00.315Z,101358.53
2023-05-02T04:37:02.800Z,101360.80
2023-05-02T04:38:06.667Z,101364.67
2023-05-02T04:39:09.699Z,101362.22
2023-05-02T04:40:14.299Z,101364.08
2023-05-02T04:41:17.647Z,101370.71
2023-05-02T04:42:21.804Z,101367.05
2023-05-02T04:43:25.845Z,101372.09
2023-05-02T04:44:30.146Z,101364.88
2023-05-02T04:45:34.988Z,101369.94
2023-05-02T04:46:37.437Z,101373.02
2023-05-02T04:47:39.972Z,101367.39
2023-05-02T04:48:42.782Z,101364.56
2023-05-02T04:49:45.128Z,101366.86
2023-05-02T04:50:49.595Z,101368.77
2023-05-02T04:51:54.626Z,101370.23
2023-05-02T04:52:58.059Z,101372.23
2023-05-02T04:54:00.276Z,101364.58
2023-05-02T04:55:08.030Z,101372.05
2023-05-02T04:56:10.675Z,101371.98
2023-05-02T04:57:13.930Z,101373.88
2023-05-02T04:58:17.970Z,101369.06
2023-05-02T04:59:21.925Z,101377.31
2023-05-02T05:00:24.470Z,101372.91
2023-05-02T05:01:26.693Z,101380.38
2023-05-02T05:02:29.918Z,101377.55
2023-05-02T05:03:33.178Z,101382.22
2023-05-02T05:04:36.431Z,101372.69
2023-05-02T05:05:38.817Z,101373.41
2023-05-02T05:06:43.865Z,101370.14
2023-05-02T05:07:46.644Z,101370.86
2023-05-02T05:08:49.930Z,101373.99
2023-05-02T05:09:53.430Z,101379.02
2023-05-02T05:10:58.143Z,101374.19
2023-05-02T05:12:01.175Z,101363.80
2023-05-02T05:13:05.431Z,101370.42
2023-05-02T05:14:08.568Z,101361.64
2023-05-02T05:15:12.568Z,101370.67
2023-05-02T05:16:16.788Z,101365.84
2023-05-02T05:17:19.194Z,101367.77
2023-05-02T05:18:21.488Z,101369.68
2023-05-02T05:19:23.785Z,101370.81
2023-05-02T05:20:26.682Z,101372.70
2023-05-02T05:21:31.065Z,101377.41
2023-05-02T05:22:40.661Z,101374.98
2023-05-02T05:23:45.978Z,101376.12
2023-05-02T05:24:53.606Z,101376.47
2023-05-02T05:26:10.089Z,101379.95
2023-05-02T05:27:13.308Z,101375.55
2023-05-02T05:28:16.535Z,101378.67
2023-05-02T05:29:19.564Z,101382.98
2023-05-02T05:30:22.947Z,101375.44
2023-05-02T05:31:25.074Z,101386.89
2023-05-02T05:32:29.070Z,101376.58
2023-05-02T05:37:58.006Z,101381.97
2023-05-02T05:39:00.931Z,101383.97
2023-05-02T05:40:10.067Z,101383.11
2023-05-02T05:41:13.243Z,101386.67
2023-05-02T05:42:17.172Z,101374.70
2023-05-02T05:43:21.201Z,101381.82
2023-05-02T05:44:23.391Z,101391.17
2023-05-02T05:45:25.403Z,101378.77
2023-05-02T05:46:27.665Z,101383.47
2023-05-02T05:47:30.486Z,101388.95
2023-05-02T05:48:33.759Z,101382.53
2023-05-02T05:49:38.927Z,101381.66
2023-05-02T05:50:44.234Z,101385.14
2023-05-02T05:51:47.168Z,101382.28
2023-05-02T05:52:50.438Z,101383.41
2023-05-02T05:53:53.035Z,101388.00
2023-05-02T05:54:55.322Z,101383.48
2023-05-02T05:55:57.610Z,101386.53
2023-05-02T05:56:59.998Z,101385.23
2023-05-02T05:58:02.681Z,101386.67
2023-05-02T05:59:05.706Z,101382.59
2023-05-02T06:00:10.524Z,101386.06
2023-05-02T06:01:19.506Z,101378.41
2023-05-02T06:02:21.525Z,101372.77
2023-05-02T06:03:24.085Z,101380.55
2023-05-02T06:04:27.461Z,101375.69
2023-05-02T06:05:30.268Z,101381.50
2023-05-02T06:06:32.979Z,101386.06
2023-05-02T06:07:35.333Z,101383.53
2023-05-02T06:08:37.359Z,101373.09
2023-05-02T06:09:39.845Z,101377.78
2023-05-02T06:10:42.051Z,101381.70
2023-05-02T06:11:44.274Z,101379.91
2023-05-02T06:12:47.838Z,101377.47
2023-05-02T06:13:53.324Z,101380.50
2023-05-02T06:14:56.199Z,101381.19
2023-05-02T06:16:01.746Z,101384.18
2023-05-02T06:17:05.064Z,101380.42
2023-05-02T06:18:09.062Z,101376.31
2023-05-02T06:19:11.359Z,101374.99
2023-05-02T06:20:16.613Z,101374.08
2023-05-02T06:21:19.271Z,101375.55
2023-05-02T06:22:21.814Z,101382.60
2023-05-02T06:24:31.812Z,101380.49
2023-05-02T06:25:38.708Z,101383.83
2023-05-02T06:26:40.849Z,101376.59
2023-05-02T06:27:43.077Z,101383.62
2023-05-02T06:28:45.189Z,101380.62
2023-05-02T06:29:47.422Z,101383.27
2023-05-02T06:31:01.354Z,101382.72
2023-05-02T06:32:05.171Z,101378.27
2023-05-02T06:33:07.388Z,101381.28
2023-05-02T06:34:09.720Z,101381.17
2023-05-02T06:35:12.775Z,101383.38
2023-05-02T06:36:15.273Z,101377.24
2023-05-02T06:37:17.370Z,101382.59
2023-05-02T06:38:21.290Z,101372.86
2023-05-02T06:39:23.723Z,101376.32
2023-05-02T06:40:25.787Z,101384.91
2023-05-02T06:41:28.054Z,101386.69
2023-05-02T06:42:30.160Z,101383.30
2023-05-02T06:43:32.453Z,101383.97
2023-05-02T06:44:34.605Z,101384.63
2023-05-02T06:45:36.805Z,101383.41
2023-05-02T06:46:39.218Z,101380.05
2023-05-02T06:47:41.729Z,101387.97
2023-05-02T06:48:43.772Z,101382.24
2023-05-02T06:49:45.844Z,101384.13
2023-05-02T06:50:50.740Z,101386.92
2023-05-02T06:51:53.003Z,101388.03
2023-05-02T06:52:55.190Z,101386.36
2023-05-02T06:53:57.726Z,101391.16
2023-05-02T06:54:59.628Z,101388.94
2023-05-02T06:56:01.820Z,101385.36
2023-05-02T06:57:04.179Z,101387.38
2023-05-02T06:58:06.378Z,101384.91
2023-05-02T06:59:09.716Z,101389.27
2023-05-02T07:01:25.598Z,101387.80
2023-05-02T07:02:27.995Z,101395.17
2023-05-02T07:03:30.030Z,101390.38
2023-05-02T07:04:32.276Z,101384.34
2023-05-02T07:05:34.746Z,101383.80
2023-05-02T07:06:36.886Z,101382.42
2023-05-02T07:07:39.238Z,101382.30
2023-05-02T07:08:41.153Z,101385.42
2023-05-02T07:09:43.212Z,101390.55
2023-05-02T07:10:45.619Z,101390.77
2023-05-02T07:11:47.612Z,101390.16
2023-05-02T07:12:49.896Z,101392.50
2023-05-02T07:13:51.993Z,101387.24
2023-05-02T07:14:54.737Z,101395.29
2023-05-02T07:15:57.093Z,101388.92
2023-05-02T07:18:07.207Z,101389.33
2023-05-02T07:19:12.077Z,101392.83
2023-05-02T07:20:14.265Z,101395.49
2023-05-02T07:21:16.492Z,101389.01
2023-05-02T07:22:18.789Z,101395.05
2023-05-02T07:23:20.980Z,101389.66
2023-05-02T07:24:23.278Z,101391.34
2023-05-02T07:25:25.436Z,101387.13
2023-05-02T07:26:28.053Z,101391.02
2023-05-02T07:27:30.208Z,101387.77
2023-05-02T07:28:32.369Z,101380.84
2023-05-02T07:29:34.514Z,101384.73
2023-05-02T07:30:37.078Z,101388.92
2023-05-02T07:31:39.284Z,101394.26
2023-05-02T07:32:41.651Z,101386.86
2023-05-02T07:33:43.847Z,101385.92
2023-05-02T07:34:46.048Z,101379.75
2023-05-02T07:35:48.198Z,101388.33
2023-05-02T07:36:50.872Z,101389.75
2023-05-02T07:37:54.127Z,101380.91
2023-05-02T07:38:56.451Z,101393.65
2023-05-02T07:39:59.240Z,101391.47
2023-05-02T07:41:02.599Z,101391.34
2023-05-02T07:42:04.719Z,101387.64
2023-05-02T07:43:07.891Z,101391.98
2023-05-02T07:44:11.536Z,101393.87
2023-05-02T07:45:13.867Z,101392.95
2023-05-02T07:46:16.384Z,101383.95
2023-05-02T07:47:19.012Z,101392.95
2023-05-02T07:48:21.027Z,101388.92
2023-05-02T07:49:23.261Z,101380.55
2023-05-02T07:50:25.894Z,101394.34
2023-05-02T07:51:28.847Z,101389.41
2023-05-02T07:52:31.137Z,101388.03
2023-05-02T07:53:33.200Z,101392.25
2023-05-02T07:54:35.520Z,101381.42
2023-05-02T07:55:37.696Z,101383.27
2023-05-02T07:56:42.253Z,101378.00
2023-05-02T07:57:44.531Z,101378.00
2023-05-02T07:58:46.553Z,101383.59
2023-05-02T07:59:48.665Z,101384.05
2023-05-02T08:00:51.756Z,101381.89
2023-05-02T08:01:54.042Z,101380.20
2023-05-02T08:02:56.265Z,101387.66
2023-05-02T08:03:59.471Z,101374.47
2023-05-02T08:05:06.055Z,101378.68
2023-05-02T08:06:08.858Z,101374.94
2023-05-02T08:07:14.031Z,101375.25
2023-05-02T08:08:16.551Z,101367.64
2023-05-02T08:09:18.801Z,101373.41
2023-05-02T08:10:22.298Z,101371.56
2023-05-02T08:11:25.523Z,101370.79
2023-05-02T08:12:27.664Z,101370.94
2023-05-02T08:13:31.133Z,101369.09
2023-05-02T08:14:35.334Z,101368.02
2023-05-02T08:15:37.606Z,101369.11
2023-05-02T08:16:40.368Z,101375.48
2023-05-02T08:17:43.515Z,101368.65
2023-05-02T08:18:46.614Z,101364.43
2023-05-02T08:19:48.883Z,101370.81
2023-05-02T08:20:51.140Z,101368.02
2023-05-02T08:21:54.234Z,101366.91
2023-05-02T08:22:58.018Z,101369.71
2023-05-02T08:24:00.592Z,101366.91
2023-05-02T08:25:03.075Z,101360.39
2023-05-02T08:26:05.947Z,101362.41
2023-05-02T08:27:09.344Z,101364.75
2023-05-02T08:28:11.560Z,101368.17
2023-05-02T08:29:13.838Z,101366.63
2023-05-02T08:30:16.740Z,101368.95
2023-05-02T08:31:19.178Z,101365.37
2023-05-02T08:32:21.805Z,101365.55
2023-05-02T08:33:24.113Z,101363.84
2023-05-02T08:34:26.849Z,101359.17
2023-05-02T08:35:29.138Z,101360.58
2023-05-02T08:36:31.408Z,101360.73
2023-05-02T08:37:33.510Z,101360.73
2023-05-02T08:38:35.804Z,101356.22
2023-05-02T08:39:38.011Z,101360.08
2023-05-02T08:40:42.709Z,101362.73
2023-05-02T08:41:45.395Z,101361.02
2023-05-02T08:42:47.482Z,101356.66
2023-05-02T08:43:49.631Z,101356.98
2023-05-02T08:44:51.852Z,101358.22
2023-05-02T08:45:53.988Z,101352.63
2023-05-02T08:46:56.316Z,101347.34
2023-05-02T08:47:58.455Z,101337.55
2023-05-02T08:49:00.865Z,101351.70
2023-05-02T08:50:06.523Z,101344.05
2023-05-02T08:51:10.484Z,101340.50
2023-05-02T08:52:12.614Z,101340.19
2023-05-02T08:53:15.279Z,101333.16
2023-05-02T08:54:17.785Z,101326.16
2023-05-02T08:55:19.961Z,101336.73
2023-05-02T08:56:22.659Z,101338.91
2023-05-02T08:57:25.100Z,101339.21
2023-05-02T08:58:27.010Z,101334.23
2023-05-02T08:59:29.202Z,101331.75
2023-05-02T09:00:33.219Z,101324.59
2023-05-02T09:01:35.513Z,101324.90
2023-05-02T09:02:51.137Z,101326.27
2023-05-02T09:03:53.359Z,101319.25
2023-05-02T09:04:57.309Z,101324.69
2023-05-02T09:06:11.399Z,101321.89
2023-05-02T09:07:13.497Z,101325.16
2023-05-02T09:08:15.470Z,101314.73
2023-05-02T09:09:19.103Z,101318.31
2023-05-02T09:10:22.812Z,101317.06
2023-05-02T09:11:24.898Z,101316.59
2023-05-02T09:12:27.652Z,101314.27
2023-05-02T09:13:38.266Z,101313.79
2023-05-02T09:14:42.992Z,101310.38
2023-05-02T09:15:57.720Z,101312.70
2023-05-02T09:17:02.039Z,101309.91
2023-05-02T09:19:12.790Z,101302.37
2023-05-02T09:20:16.105Z,101306.89
2023-05-02T09:21:23.959Z,101310.00
2023-05-02T09:22:26.264Z,101302.20
2023-05-02T09:23:45.243Z,101297.98
2023-05-02T09:24:50.937Z,101304.67
2023-05-02T09:25:53.281Z,101297.62
2023-05-02T09:27:03.314Z,101301.80
2023-05-02T09:28:05.615Z,101299.00
2023-05-02T09:29:07.796Z,101293.87
2023-05-02T09:30:23.836Z,101293.09
2023-05-02T09:31:49.617Z,101293.56
2023-05-02T09:32:45.246Z,101287.48
2023-05-02T09:33:47.859Z,101290.28
2023-05-02T09:35:10.530Z,101286.54
2023-05-02T09:36:15.569Z,101283.56
2023-05-02T09:37:36.357Z,101288.83
2023-05-02T09:38:38.564Z,101289.70
2023-05-02T09:39:40.967Z,101284.23
2023-05-02T09:40:55.868Z,101289.69
2023-05-02T09:41:58.242Z,101281.10
2023-05-02T09:43:00.602Z,101287.19
2023-05-02T09:45:23.130Z,101278.30
2023-05-02T09:46:25.433Z,101278.31
2023-05-02T09:47:27.684Z,101282.67
2023-05-02T09:48:31.051Z,101281.58
2023-05-02T09:49:45.950Z,101284.01
2023-05-02T09:50:50.201Z,101282.10
2023-05-02T09:51:52.402Z,101280.67
2023-05-02T09:53:08.341Z,101283.30
2023-05-02T09:54:10.442Z,101274.67
2023-05-02T09:56:28.940Z,101282.55
2023-05-02T09:57:39.259Z,101278.73
2023-05-02T09:58:41.509Z,101278.47
2023-05-02T09:59:56.824Z,101275.93
2023-05-02T10:00:59.058Z,101273.90
2023-05-02T10:02:02.663Z,101273.33
2023-05-02T10:03:08.622Z,101271.60
2023-05-02T10:04:12.705Z,101283.59
2023-05-02T10:05:14.900Z,101271.88
2023-05-02T10:06:21.935Z,101272.17
2023-05-02T10:07:25.193Z,101270.62
2023-05-02T10:08:28.204Z,101275.93
2023-05-02T10:09:30.466Z,101269.06
2023-05-02T10:10:36.215Z,101270.91
2023-05-02T10:12:49.725Z,101273.78
2023-05-02T10:13:51.894Z,101267.09
2023-05-02T10:14:57.241Z,101273.00
2023-05-02T10:16:04.406Z,101274.34
2023-05-02T10:17:12.156Z,101270.09
2023-05-02T10:18:17.308Z,101272.24
2023-05-02T10:20:37.230Z,101271.29
2023-05-02T10:21:39.288Z,101271.17
2023-05-02T10:22:41.468Z,101276.80
2023-05-02T10:23:43.799Z,101270.99
2023-05-02T10:26:00.100Z,101266.16
2023-05-02T10:27:03.556Z,101269.36
2023-05-02T10:28:09.471Z,101264.23
2023-05-02T10:29:11.650Z,101266.74
2023-05-02T10:30:14.064Z,101265.86
2023-05-02T10:31:16.086Z,101261.80
2023-05-02T10:32:18.954Z,101258.21
2023-05-02T10:33:21.757Z,101257.03
2023-05-02T10:34:23.711Z,101255.70
2023-05-02T10:35:25.866Z,101264.00
2023-05-02T10:36:28.413Z,101256.95
2023-05-02T10:37:30.566Z,101250.37
2023-05-02T10:38:32.592Z,101252.19
2023-05-02T10:39:34.723Z,101253.75
2023-05-02T10:40:39.906Z,101248.72
2023-05-02T10:41:42.315Z,101247.17
2023-05-02T10:42:46.110Z,101241.84
2023-05-02T10:43:49.201Z,101251.53
2023-05-02T10:44:52.092Z,101248.72
2023-05-02T10:45:54.331Z,101247.27
2023-05-02T10:46:57.175Z,101248.83
2023-05-02T10:49:28.029Z,101245.91
2023-05-02T10:50:49.765Z,101241.77
2023-05-02T10:51:51.847Z,101242.06
2023-05-02T10:52:54.171Z,101242.80
2023-05-02T10:54:18.268Z,101239.52
2023-05-02T10:55:23.517Z,101238.66
2023-05-02T10:56:28.516Z,101238.85
2023-05-02T10:57:29.900Z,101239.15
2023-05-02T10:58:34.883Z,101228.77
2023-05-02T10:59:39.619Z,101245.72
2023-05-02T11:00:41.869Z,101243.81
2023-05-02T11:01:44.228Z,101240.81
2023-05-02T11:02:48.292Z,101234.50
2023-05-02T11:03:56.122Z,101239.14
2023-05-02T11:05:07.767Z,101243.80
2023-05-02T11:06:10.294Z,101244.86
2023-05-02T11:07:18.603Z,101240.80
2023-05-02T11:08:24.421Z,101234.89
2023-05-02T11:09:30.899Z,101221.81
2023-05-02T11:10:34.194Z,101227.91
2023-05-02T11:11:43.510Z,101225.88
2023-05-02T11:12:47.926Z,101225.59
2023-05-02T11:13:50.672Z,101222.30
2023-05-02T11:14:53.141Z,101229.27
2023-05-02T11:15:55.175Z,101228.78
2023-05-02T11:17:04.713Z,101231.11
2023-05-02T11:18:08.130Z,101228.59
2023-05-02T11:19:10.711Z,101235.56
2023-05-02T11:20:18.408Z,101231.98
2023-05-02T11:22:35.519Z,101220.52
2023-05-02T11:23:38.055Z,101229.08
2023-05-02T11:24:41.572Z,101225.00
2023-05-02T11:25:57.131Z,101223.45
2023-05-02T11:27:32.394Z,101229.84
2023-05-02T11:28:40.333Z,101228.98
2023-05-02T11:29:52.334Z,101224.03
2023-05-02T11:30:56.170Z,101213.58
2023-05-02T11:31:59.544Z,101225.10
2023-05-02T11:33:08.910Z,101221.03
2023-05-02T11:34:11.099Z,101223.36
2023-05-02T11:35:24.730Z,101213.19
2023-05-02T11:36:32.263Z,101216.77
2023-05-02T11:37:34.568Z,101215.52
2023-05-02T11:38:37.787Z,101214.25
2023-05-02T11:39:40.023Z,101215.60
2023-05-02T11:42:00.093Z,101208.00
2023-05-02T11:43:13.960Z,101205.38
2023-05-02T11:44:16.197Z,101207.70
2023-05-02T11:45:18.801Z,101211.00
2023-05-02T11:46:21.404Z,101206.93
2023-05-02T11:47:25.115Z,101213.62
2023-05-02T11:48:27.458Z,101209.80
2023-05-02T11:49:29.428Z,101207.28
2023-05-02T11:50:33.207Z,101199.91
2023-05-02T11:51:35.567Z,101200.69
2023-05-02T11:53:48.848Z,101196.00
2023-05-02T11:54:55.494Z,101193.31
2023-05-02T11:55:59.249Z,101195.34
2023-05-02T11:57:01.928Z,101196.41
2023-05-02T11:58:03.949Z,101193.02
2023-05-02T11:59:06.109Z,101201.17
2023-05-02T12:00:11.679Z,101194.77
2023-05-02T12:01:14.754Z,101185.66
2023-05-02T12:02:17.666Z,101184.67
2023-05-02T12:03:30.343Z,101186.72
2023-05-02T12:04:32.839Z,101186.23
2023-05-02T12:05:35.023Z,101180.89
2023-05-02T12:06:42.482Z,101190.38
2023-05-02T12:07:45.553Z,101191.41
2023-05-02T12:08:47.884Z,101186.84
2023-05-02T12:11:00.688Z,101192.78
2023-05-02T12:12:03.294Z,101184.24
2023-05-02T12:13:05.667Z,101190.92
2023-05-02T12:14:07.882Z,101181.53
2023-05-02T12:15:11.854Z,101191.31
2023-05-02T12:16:15.344Z,101191.88
2023-05-02T12:17:18.048Z,101188.09
2023-05-02T12:18:22.766Z,101183.98
2023-05-02T12:19:25.093Z,101180.91
2023-05-02T12:20:29.742Z,101183.20
2023-05-02T12:21:32.733Z,101177.08
2023-05-02T12:22:35.232Z,101178.34
2023-05-02T12:24:45.137Z,101170.55
2023-05-02T12:25:47.423Z,101173.50
2023-05-02T12:26:51.121Z,101179.41
2023-05-02T12:28:00.778Z,101180.95
2023-05-02T12:29:02.993Z,101169.20
2023-05-02T12:30:09.048Z,101171.03
2023-05-02T12:31:11.481Z,101177.72
2023-05-02T12:32:18.104Z,101170.61
2023-05-02T12:33:20.208Z,101166.81
2023-05-02T12:34:34.247Z,101169.38
2023-05-02T12:35:36.391Z,101168.61
2023-05-02T12:36:43.635Z,101180.92
2023-05-02T12:37:47.298Z,101171.20
2023-05-02T12:40:00.854Z,101171.59
2023-05-02T12:41:04.378Z,101173.59
2023-05-02T12:42:13.139Z,101172.82
2023-05-02T12:43:15.685Z,101170.50
2023-05-02T12:44:17.685Z,101174.30
2023-05-02T12:45:19.801Z,101166.36
2023-05-02T12:46:23.401Z,101165.86
2023-05-02T12:47:25.583Z,101161.78
2023-05-02T12:48:28.104Z,101158.75
2023-05-02T12:49:31.856Z,101158.53
2023-05-02T12:51:50.937Z,101162.00
2023-05-02T12:52:53.122Z,101166.02